Time;durP1;ratioP1;P1;durP2;ratioP2;P2;SDS_P1;SDS_P2;PMS_P1;PMS_P2;Temp;Humidity;BMP_temperature;BMP_pressure;BME280_temperature;BME280_humidity;BME280_pressure;Samples;Min_cycle;Max_cycle;Signal;HPM_P1;HPM_P2
2022/10/06 00:00:47;;;;;;;;;;;14.40;99.90;;;;;;4979436;28;20037;-75
2022/10/06 00:03:14;;;;;;;;;;;14.40;99.90;;;;;;4984429;28;20023;-76
2022/10/06 00:05:41;;;;;;;;;;;14.30;99.90;;;;;;4983033;28;19969;-76
2022/10/06 00:08:08;;;;;;;;;;;14.30;99.90;;;;;;4980682;28;19945;-76
2022/10/06 00:10:35;;;;;;;;;;;14.30;99.90;;;;;;4979807;28;19937;-76
2022/10/06 00:13:02;;;;;;;;;;;14.30;99.90;;;;;;4978986;28;19926;-76
2022/10/06 00:15:30;;;;;;;;;;;14.30;99.90;;;;;;4982826;28;20388;-75
2022/10/06 00:17:58;;;;;;;;;;;14.20;99.90;;;;;;4994130;28;19930;-75
2022/10/06 00:20:26;;;;;;;;;;;14.20;99.90;;;;;;4999250;28;19929;-75
2022/10/06 00:22:53;;;;;;;;;;;14.20;99.90;;;;;;4984095;28;19925;-76
2022/10/06 00:25:21;;;;;;;;;;;14.20;99.90;;;;;;4986466;28;19976;-76
2022/10/06 00:27:49;;;;;;;;;;;14.20;99.90;;;;;;4976975;28;19934;-75
2022/10/06 00:30:18;;;;;;;;;;;14.20;99.90;;;;;;4981790;28;19925;-76
2022/10/06 00:32:50;;;;;;;;;;;14.10;99.90;;;;;;4983639;28;19934;-76
2022/10/06 00:35:18;;;;;;;;;;;14.10;99.90;;;;;;4978980;28;20304;-76
2022/10/06 00:37:46;;;;;;;;;;;14.10;99.90;;;;;;4982221;28;19930;-76
2022/10/06 00:40:13;;;;;;;;;;;14.10;99.90;;;;;;4982340;28;19926;-75
2022/10/06 00:42:50;;;;;;;;;;;14.10;99.90;;;;;;4982967;28;19930;-76
2022/10/06 00:45:18;;;;;;;;;;;14.10;99.90;;;;;;4981908;28;20348;-75
2022/10/06 00:47:45;;;;;;;;;;;14.00;99.90;;;;;;4980975;28;19934;-76
2022/10/06 00:50:12;;;;;;;;;;;14.00;99.90;;;;;;4977317;28;19932;-75
2022/10/06 00:52:41;;;;;;;;;;;14.00;99.90;;;;;;4983401;28;19973;-75
2022/10/06 00:55:08;;;;;;;;;;;14.00;99.90;;;;;;4974538;28;20389;-76
2022/10/06 00:57:35;;;;;;;;;;;14.00;99.90;;;;;;4979746;28;19969;-76
2022/10/06 01:00:03;;;;;;;;;;;14.00;99.90;;;;;;4983700;28;19933;-76
2022/10/06 01:02:34;;;;;;;;;;;13.90;99.90;;;;;;4976378;28;20451;-76
2022/10/06 01:05:02;;;;;;;;;;;13.90;99.90;;;;;;4998255;28;19972;-76
2022/10/06 01:07:29;;;;;;;;;;;13.90;99.90;;;;;;4981368;28;19926;-75
2022/10/06 01:09:59;;;;;;;;;;;13.90;99.90;;;;;;4983552;28;20396;-76
2022/10/06 01:12:27;;;;;;;;;;;13.90;99.90;;;;;;4979131;28;20648;-76
2022/10/06 01:14:55;;;;;;;;;;;13.90;99.90;;;;;;4983650;28;19977;-75
2022/10/06 01:17:23;;;;;;;;;;;13.80;99.90;;;;;;4981994;28;19934;-76
2022/10/06 01:19:52;;;;;;;;;;;13.80;99.90;;;;;;4980040;28;20048;-76
2022/10/06 01:22:24;;;;;;;;;;;13.80;99.90;;;;;;4980422;28;19933;-76
2022/10/06 01:24:52;;;;;;;;;;;13.80;99.90;;;;;;4980506;28;20143;-76
2022/10/06 01:27:19;;;;;;;;;;;13.80;99.90;;;;;;4980828;28;19969;-75
2022/10/06 01:29:46;;;;;;;;;;;13.80;99.90;;;;;;4983047;28;19960;-75
2022/10/06 01:32:13;;;;;;;;;;;13.80;99.90;;;;;;4982703;28;20011;-76
2022/10/06 01:34:40;;;;;;;;;;;13.70;99.90;;;;;;4985411;28;19938;-75
2022/10/06 01:37:06;;;;;;;;;;;13.70;99.90;;;;;;4987607;28;19932;-76
2022/10/06 01:39:35;;;;;;;;;;;13.70;99.90;;;;;;4977796;28;19948;-75
2022/10/06 01:42:02;;;;;;;;;;;13.70;99.90;;;;;;4983473;28;20020;-76
2022/10/06 01:44:29;;;;;;;;;;;13.70;99.90;;;;;;4980641;28;19932;-76
2022/10/06 01:46:56;;;;;;;;;;;13.70;99.90;;;;;;4998156;28;20396;-76
2022/10/06 01:49:22;;;;;;;;;;;13.60;99.90;;;;;;4983220;28;20419;-76
2022/10/06 01:51:50;;;;;;;;;;;13.60;99.90;;;;;;4979760;28;19981;-76
2022/10/06 01:54:17;;;;;;;;;;;13.60;99.90;;;;;;4982315;28;19926;-76
2022/10/06 01:56:45;;;;;;;;;;;13.50;99.90;;;;;;4976227;28;19926;-75
2022/10/06 01:59:12;;;;;;;;;;;13.60;99.90;;;;;;4978764;28;19926;-76
2022/10/06 02:01:39;;;;;;;;;;;13.60;99.90;;;;;;4979601;28;21549;-75
2022/10/06 02:04:05;;;;;;;;;;;13.50;99.90;;;;;;4998930;28;19933;-75
2022/10/06 02:06:32;;;;;;;;;;;13.50;99.90;;;;;;4974975;28;19930;-76
2022/10/06 02:09:00;;;;;;;;;;;13.50;99.90;;;;;;4984137;28;20288;-74
2022/10/06 02:11:27;;;;;;;;;;;13.50;99.90;;;;;;4982800;28;19941;-75
2022/10/06 02:13:55;;;;;;;;;;;13.50;99.90;;;;;;4980136;28;19934;-76
2022/10/06 02:16:22;;;;;;;;;;;13.50;99.90;;;;;;4979648;28;19976;-76
2022/10/06 02:18:49;;;;;;;;;;;13.50;99.90;;;;;;4980284;28;19926;-76
2022/10/06 02:21:17;;;;;;;;;;;13.40;99.90;;;;;;4981979;28;19976;-76
2022/10/06 02:23:44;;;;;;;;;;;13.40;99.90;;;;;;4976705;28;20016;-75
2022/10/06 02:26:11;;;;;;;;;;;13.40;99.90;;;;;;4984027;28;19925;-76
2022/10/06 02:28:38;;;;;;;;;;;13.40;99.90;;;;;;4982393;28;19926;-76
2022/10/06 02:31:08;;;;;;;;;;;13.40;99.90;;;;;;4997211;28;19934;-76
2022/10/06 02:33:37;;;;;;;;;;;13.40;99.90;;;;;;4979996;28;20427;-76
2022/10/06 02:36:08;;;;;;;;;;;13.40;99.90;;;;;;4998624;28;19938;-76
2022/10/06 02:38:35;;;;;;;;;;;13.30;99.90;;;;;;4983784;28;20405;-75
2022/10/06 02:41:06;;;;;;;;;;;13.40;99.90;;;;;;4994671;28;19966;-75
2022/10/06 02:43:34;;;;;;;;;;;13.30;99.90;;;;;;4977175;28;20653;-75
2022/10/06 02:46:02;;;;;;;;;;;13.30;99.90;;;;;;4997233;28;19926;-76
2022/10/06 02:48:32;;;;;;;;;;;13.30;99.90;;;;;;4995821;28;19961;-76
2022/10/06 02:51:00;;;;;;;;;;;13.30;99.90;;;;;;4973549;28;19988;-76
2022/10/06 02:53:27;;;;;;;;;;;13.30;99.90;;;;;;4978651;28;21778;-76
2022/10/06 02:55:59;;;;;;;;;;;13.20;99.90;;;;;;4978931;28;20316;-75
2022/10/06 02:58:26;;;;;;;;;;;13.20;99.90;;;;;;4980308;28;19948;-76
2022/10/06 03:00:53;;;;;;;;;;;13.20;99.90;;;;;;4989057;28;20296;-76
2022/10/06 03:03:20;;;;;;;;;;;13.20;99.90;;;;;;4978007;28;20488;-75
2022/10/06 03:05:48;;;;;;;;;;;13.20;99.90;;;;;;4979419;28;20385;-75
2022/10/06 03:08:15;;;;;;;;;;;13.20;99.90;;;;;;4972734;28;19937;-75
2022/10/06 03:10:43;;;;;;;;;;;13.10;99.90;;;;;;4980131;28;19980;-75
2022/10/06 03:13:10;;;;;;;;;;;13.10;99.90;;;;;;4995887;28;19938;-76
2022/10/06 03:15:37;;;;;;;;;;;13.10;99.90;;;;;;4981549;28;19926;-75
2022/10/06 03:18:04;;;;;;;;;;;13.10;99.90;;;;;;4995538;28;19930;-76
2022/10/06 03:20:31;;;;;;;;;;;13.10;99.90;;;;;;4984687;28;19938;-75
2022/10/06 03:22:59;;;;;;;;;;;13.10;99.90;;;;;;5001676;28;19936;-76
2022/10/06 03:25:26;;;;;;;;;;;13.10;99.90;;;;;;4979151;28;19940;-76
2022/10/06 03:27:54;;;;;;;;;;;13.00;99.90;;;;;;5003810;28;19926;-76
2022/10/06 03:30:21;;;;;;;;;;;13.00;99.90;;;;;;4986432;28;20000;-74
2022/10/06 03:32:48;;;;;;;;;;;13.00;99.90;;;;;;4982899;28;20319;-75
2022/10/06 03:35:15;;;;;;;;;;;13.00;99.90;;;;;;4985824;28;20453;-75
2022/10/06 03:37:42;;;;;;;;;;;13.00;99.90;;;;;;4986257;28;19988;-75
2022/10/06 03:40:11;;;;;;;;;;;13.00;99.90;;;;;;4985428;28;19930;-75
2022/10/06 03:42:39;;;;;;;;;;;12.90;99.90;;;;;;4983421;28;20013;-76
2022/10/06 03:45:06;;;;;;;;;;;13.00;99.90;;;;;;4984054;28;20024;-76
2022/10/06 03:47:33;;;;;;;;;;;12.90;99.90;;;;;;4989013;28;19926;-76
2022/10/06 03:50:00;;;;;;;;;;;12.90;99.90;;;;;;4983170;28;20473;-75
2022/10/06 03:52:27;;;;;;;;;;;12.90;99.90;;;;;;4994530;28;20323;-75
2022/10/06 03:54:54;;;;;;;;;;;12.80;99.90;;;;;;4983529;28;19933;-75
2022/10/06 03:57:23;;;;;;;;;;;12.90;99.90;;;;;;4982202;28;19934;-75
2022/10/06 03:59:50;;;;;;;;;;;12.90;99.90;;;;;;4980629;28;19926;-75
2022/10/06 04:02:17;;;;;;;;;;;12.80;99.90;;;;;;4999840;28;20454;-74
2022/10/06 04:04:44;;;;;;;;;;;12.80;99.90;;;;;;4980050;28;20008;-74
2022/10/06 04:07:11;;;;;;;;;;;12.70;99.90;;;;;;5000343;28;19926;-75
2022/10/06 04:09:39;;;;;;;;;;;12.80;99.90;;;;;;4973325;28;19934;-75
2022/10/06 04:12:07;;;;;;;;;;;12.80;99.90;;;;;;4980463;28;19932;-75
2022/10/06 04:14:37;;;;;;;;;;;12.80;99.90;;;;;;5004998;28;19930;-75
2022/10/06 04:17:06;;;;;;;;;;;12.80;99.90;;;;;;4993399;28;20023;-75
2022/10/06 04:19:40;;;;;;;;;;;12.70;99.90;;;;;;4982445;28;20956;-75
2022/10/06 04:22:07;;;;;;;;;;;12.70;99.90;;;;;;4982214;28;19929;-74
2022/10/06 04:24:35;;;;;;;;;;;12.70;99.90;;;;;;5002091;28;19925;-75
2022/10/06 04:29:48;;;;;;;;;;;12.70;99.90;;;;;;4979381;28;20048;-76
2022/10/06 04:32:15;;;;;;;;;;;12.70;99.90;;;;;;4982730;28;20404;-77
2022/10/06 04:34:42;;;;;;;;;;;12.70;99.90;;;;;;4977409;28;20379;-77
2022/10/06 04:37:09;;;;;;;;;;;12.70;99.90;;;;;;4993687;28;20409;-76
2022/10/06 04:39:37;;;;;;;;;;;12.70;99.90;;;;;;4980815;28;20159;-76
2022/10/06 04:42:04;;;;;;;;;;;12.60;99.90;;;;;;4982252;28;19940;-79
2022/10/06 04:44:31;;;;;;;;;;;12.60;99.90;;;;;;4976120;28;20292;-78
2022/10/06 04:47:02;;;;;;;;;;;12.60;99.90;;;;;;4976818;28;19973;-77
2022/10/06 04:49:30;;;;;;;;;;;12.60;99.90;;;;;;4974959;28;19933;-77
2022/10/06 04:51:57;;;;;;;;;;;12.60;99.90;;;;;;4978602;28;20478;-77
2022/10/06 04:54:25;;;;;;;;;;;12.60;99.90;;;;;;4975261;28;20021;-80
2022/10/06 04:56:57;;;;;;;;;;;12.60;99.90;;;;;;4980444;28;19926;-76
2022/10/06 05:00:21;;;;;;;;;;;12.60;99.90;;;;;;4982832;28;20028;-77
2022/10/06 05:02:15;;;;;;;;;;;12.60;99.90;;;;;;4979959;28;19997;-80
2022/10/06 05:04:43;;;;;;;;;;;12.60;99.90;;;;;;4977042;28;19926;-77
2022/10/06 05:07:10;;;;;;;;;;;12.50;99.90;;;;;;4981191;28;19930;-77
2022/10/06 05:09:37;;;;;;;;;;;12.50;99.90;;;;;;4978919;28;19934;-76
2022/10/06 05:12:04;;;;;;;;;;;12.50;99.90;;;;;;4975476;28;19930;-77
2022/10/06 05:14:32;;;;;;;;;;;12.50;99.90;;;;;;4990676;28;19926;-77
2022/10/06 05:16:59;;;;;;;;;;;12.50;99.90;;;;;;4994820;28;19925;-79
2022/10/06 05:19:28;;;;;;;;;;;12.50;99.90;;;;;;4976912;28;19952;-78
2022/10/06 05:21:56;;;;;;;;;;;12.50;99.90;;;;;;5000135;28;20576;-78
2022/10/06 05:24:25;;;;;;;;;;;12.50;99.90;;;;;;4979393;28;20060;-78
2022/10/06 05:26:53;;;;;;;;;;;12.40;99.90;;;;;;4983854;28;19926;-78
2022/10/06 05:29:20;;;;;;;;;;;12.40;99.90;;;;;;4982271;28;19926;-77
2022/10/06 05:31:47;;;;;;;;;;;12.50;99.90;;;;;;4986271;28;19929;-81
2022/10/06 05:34:14;;;;;;;;;;;12.50;99.90;;;;;;4979740;28;19965;-78
2022/10/06 05:36:42;;;;;;;;;;;12.40;99.90;;;;;;4980588;28;19926;-78
2022/10/06 05:39:11;;;;;;;;;;;12.40;99.90;;;;;;4994553;28;20009;-77
2022/10/06 05:41:45;;;;;;;;;;;12.50;99.90;;;;;;4982334;28;19926;-77
2022/10/06 05:44:13;;;;;;;;;;;12.40;99.90;;;;;;4983941;28;20402;-77
2022/10/06 05:46:42;;;;;;;;;;;12.40;99.90;;;;;;4980653;28;19934;-78
2022/10/06 05:49:11;;;;;;;;;;;12.40;99.90;;;;;;4980517;28;19926;-77
2022/10/06 05:51:53;;;;;;;;;;;12.30;99.90;;;;;;4977370;28;19932;-77
2022/10/06 05:54:26;;;;;;;;;;;12.30;99.90;;;;;;4981666;28;19965;-77
2022/10/06 05:56:53;;;;;;;;;;;12.30;99.90;;;;;;4982922;28;19926;-77
2022/10/06 05:59:20;;;;;;;;;;;12.30;99.90;;;;;;4991710;28;19926;-77
2022/10/06 06:01:48;;;;;;;;;;;12.30;99.90;;;;;;4988054;28;19930;-77
2022/10/06 06:04:25;;;;;;;;;;;12.30;99.90;;;;;;4978246;28;19929;-77
2022/10/06 06:06:57;;;;;;;;;;;12.30;99.90;;;;;;4999034;28;19932;-77
2022/10/06 06:09:27;;;;;;;;;;;12.30;99.90;;;;;;4974448;28;19926;-77
2022/10/06 06:11:56;;;;;;;;;;;12.30;99.90;;;;;;4979992;28;19926;-77
2022/10/06 06:17:21;;;;;;;;;;;12.20;99.90;;;;;;4977126;28;20073;-78
2022/10/06 06:19:48;;;;;;;;;;;12.20;99.90;;;;;;4983176;28;19925;-77
2022/10/06 06:22:17;;;;;;;;;;;12.20;99.90;;;;;;4981043;28;19969;-77
2022/10/06 06:24:46;;;;;;;;;;;12.20;99.90;;;;;;4981810;28;19996;-77
2022/10/06 06:27:14;;;;;;;;;;;12.20;99.90;;;;;;4982153;28;19997;-77
2022/10/06 06:29:41;;;;;;;;;;;12.20;99.90;;;;;;4983981;28;20313;-77
2022/10/06 06:32:08;;;;;;;;;;;12.20;99.90;;;;;;4997266;28;19936;-78
2022/10/06 06:34:35;;;;;;;;;;;12.20;99.90;;;;;;5001653;28;19926;-78
2022/10/06 06:37:02;;;;;;;;;;;12.20;99.90;;;;;;4985341;28;19926;-78
2022/10/06 06:39:31;;;;;;;;;;;12.20;99.90;;;;;;5002554;28;19933;-77
2022/10/06 06:41:57;;;;;;;;;;;12.20;99.90;;;;;;4978855;28;20335;-77
2022/10/06 06:44:43;;;;;;;;;;;12.20;99.90;;;;;;4981105;28;20007;-77
2022/10/06 06:47:33;;;;;;;;;;;12.20;99.90;;;;;;4979067;28;20293;-78
2022/10/06 06:50:03;;;;;;;;;;;12.10;99.90;;;;;;4979913;28;19933;-78
2022/10/06 06:52:31;;;;;;;;;;;12.10;99.90;;;;;;4979544;28;19926;-77
2022/10/06 06:55:00;;;;;;;;;;;12.20;99.90;;;;;;4983232;28;19930;-77
2022/10/06 06:57:27;;;;;;;;;;;12.10;99.90;;;;;;4980738;28;19926;-77
2022/10/06 07:00:01;;;;;;;;;;;12.10;99.90;;;;;;4983257;28;19926;-77
2022/10/06 07:02:29;;;;;;;;;;;12.20;99.90;;;;;;4989637;28;19926;-77
2022/10/06 07:04:56;;;;;;;;;;;12.10;99.90;;;;;;4986640;28;19926;-77
2022/10/06 07:07:23;;;;;;;;;;;12.20;99.90;;;;;;4977264;28;19962;-77
2022/10/06 07:09:51;;;;;;;;;;;12.10;99.90;;;;;;4984455;28;20016;-77
2022/10/06 07:12:23;;;;;;;;;;;12.10;99.90;;;;;;4984128;28;19930;-77
2022/10/06 07:26:00;;;;;;;;;;;12.10;99.90;;;;;;5004292;28;20403;-77
2022/10/06 07:28:29;;;;;;;;;;;12.10;99.90;;;;;;4996092;28;19930;-77
2022/10/06 07:30:59;;;;;;;;;;;12.10;99.90;;;;;;4990540;28;19926;-77
2022/10/06 07:33:30;;;;;;;;;;;12.10;99.90;;;;;;4987410;28;20307;-77
2022/10/06 07:35:57;;;;;;;;;;;12.10;99.90;;;;;;4987537;28;19934;-77
2022/10/06 07:38:24;;;;;;;;;;;12.10;99.90;;;;;;4981608;28;19926;-77
2022/10/06 07:40:53;;;;;;;;;;;12.10;99.90;;;;;;4988257;28;19969;-77
2022/10/06 07:43:21;;;;;;;;;;;12.10;99.90;;;;;;4978656;28;20331;-77
2022/10/06 07:45:50;;;;;;;;;;;12.10;99.90;;;;;;4990726;28;19930;-77
2022/10/06 07:48:22;;;;;;;;;;;12.10;99.90;;;;;;4982859;28;19926;-77
2022/10/06 07:50:56;;;;;;;;;;;12.10;99.90;;;;;;4994760;28;19949;-77
2022/10/06 07:53:27;;;;;;;;;;;12.10;99.90;;;;;;4985398;28;19933;-77
2022/10/06 07:56:03;;;;;;;;;;;12.10;99.90;;;;;;4980826;28;19957;-77
2022/10/06 07:58:33;;;;;;;;;;;12.10;99.90;;;;;;4980214;28;20455;-77
2022/10/06 08:01:05;;;;;;;;;;;12.10;99.90;;;;;;4983679;28;19972;-77
2022/10/06 08:03:32;;;;;;;;;;;12.10;99.90;;;;;;4985125;28;20143;-77
2022/10/06 08:05:59;;;;;;;;;;;12.10;99.90;;;;;;4990710;28;20356;-77
2022/10/06 08:08:26;;;;;;;;;;;12.20;99.90;;;;;;4981518;28;20024;-77
2022/10/06 08:10:53;;;;;;;;;;;12.10;99.90;;;;;;4984559;28;20025;-78
2022/10/06 08:13:21;;;;;;;;;;;12.20;99.90;;;;;;5003510;28;19926;-77
2022/10/06 08:15:50;;;;;;;;;;;12.20;99.90;;;;;;4981275;28;20307;-77
2022/10/06 08:18:18;;;;;;;;;;;12.20;99.90;;;;;;4991630;28;20307;-77
2022/10/06 08:20:45;;;;;;;;;;;12.20;99.90;;;;;;5005626;28;20016;-77
2022/10/06 08:23:12;;;;;;;;;;;12.20;99.90;;;;;;4981558;28;19934;-77
2022/10/06 08:25:41;;;;;;;;;;;12.20;99.90;;;;;;4990453;28;20727;-77
2022/10/06 08:28:08;;;;;;;;;;;12.20;99.90;;;;;;4987308;28;19926;-77
2022/10/06 08:30:35;;;;;;;;;;;12.20;99.90;;;;;;4988220;28;19973;-77
2022/10/06 08:33:02;;;;;;;;;;;12.20;99.90;;;;;;4989731;28;19933;-77
2022/10/06 08:35:31;;;;;;;;;;;12.20;99.90;;;;;;4991922;28;19979;-78
2022/10/06 08:37:57;;;;;;;;;;;12.20;99.90;;;;;;4988965;28;19950;-77
2022/10/06 08:40:25;;;;;;;;;;;12.30;99.90;;;;;;4979509;28;19930;-78
2022/10/06 08:42:54;;;;;;;;;;;12.30;99.90;;;;;;4988726;28;19961;-77
2022/10/06 08:45:23;;;;;;;;;;;12.30;99.90;;;;;;4991403;28;19962;-77
2022/10/06 08:47:52;;;;;;;;;;;12.30;99.90;;;;;;4987234;28;19925;-77
2022/10/06 08:50:21;;;;;;;;;;;12.30;99.90;;;;;;4982425;28;20028;-77
2022/10/06 08:52:55;;;;;;;;;;;12.30;99.90;;;;;;4984615;28;19926;-77
2022/10/06 08:55:31;;;;;;;;;;;12.30;99.90;;;;;;4977983;28;19969;-77
2022/10/06 08:58:06;;;;;;;;;;;12.40;99.90;;;;;;4982412;28;19930;-78
2022/10/06 09:00:33;;;;;;;;;;;12.40;99.90;;;;;;4987560;28;20408;-77
2022/10/06 09:03:00;;;;;;;;;;;12.40;99.90;;;;;;4988203;28;20435;-78
2022/10/06 09:05:29;;;;;;;;;;;12.40;99.90;;;;;;4984632;28;20376;-78
2022/10/06 09:08:02;;;;;;;;;;;12.50;99.90;;;;;;4982387;28;19926;-78
2022/10/06 09:10:35;;;;;;;;;;;12.50;99.90;;;;;;4987082;28;19980;-78
2022/10/06 09:13:05;;;;;;;;;;;12.50;99.90;;;;;;4983431;28;19965;-78
2022/10/06 09:15:35;;;;;;;;;;;12.60;99.90;;;;;;4980297;28;20933;-78
2022/10/06 09:18:06;;;;;;;;;;;12.60;99.90;;;;;;4986062;28;19985;-78
2022/10/06 09:20:34;;;;;;;;;;;12.60;99.90;;;;;;4985330;28;19925;-77
2022/10/06 09:23:04;;;;;;;;;;;12.70;99.90;;;;;;4987518;28;19933;-78
2022/10/06 09:25:31;;;;;;;;;;;12.70;99.90;;;;;;4999887;28;20012;-77
2022/10/06 09:27:59;;;;;;;;;;;12.80;99.90;;;;;;4988423;28;19973;-77
2022/10/06 09:30:26;;;;;;;;;;;12.80;99.90;;;;;;4985611;28;19930;-78
2022/10/06 09:32:56;;;;;;;;;;;12.90;99.90;;;;;;4989935;28;19953;-77
2022/10/06 09:35:24;;;;;;;;;;;12.90;99.90;;;;;;4981713;28;19933;-78
2022/10/06 09:37:55;;;;;;;;;;;12.90;99.90;;;;;;4988258;28;20025;-78
2022/10/06 09:40:38;;;;;;;;;;;13.00;99.90;;;;;;4979478;28;19932;-78
2022/10/06 09:43:06;;;;;;;;;;;13.00;99.90;;;;;;4977399;28;20016;-78
2022/10/06 09:45:33;;;;;;;;;;;13.00;99.90;;;;;;4985828;28;19926;-77
2022/10/06 09:48:11;;;;;;;;;;;13.10;99.90;;;;;;4985177;28;20020;-78
2022/10/06 09:50:38;;;;;;;;;;;13.10;99.90;;;;;;4986783;28;20367;-79
2022/10/06 09:53:09;;;;;;;;;;;13.10;99.90;;;;;;4974862;28;19925;-78
2022/10/06 09:55:42;;;;;;;;;;;13.20;99.90;;;;;;4989125;28;19926;-78
2022/10/06 09:58:16;;;;;;;;;;;13.20;99.90;;;;;;4985830;28;19965;-78
2022/10/06 10:00:48;;;;;;;;;;;13.20;99.90;;;;;;4982537;28;19976;-78
2022/10/06 10:03:15;;;;;;;;;;;13.30;99.90;;;;;;4984048;28;19930;-78
2022/10/06 10:05:46;;;;;;;;;;;13.30;99.90;;;;;;4985789;28;20020;-78
2022/10/06 10:08:20;;;;;;;;;;;13.30;99.90;;;;;;4979596;28;19956;-77
2022/10/06 10:10:49;;;;;;;;;;;13.40;99.90;;;;;;4975331;28;20034;-78
2022/10/06 10:13:18;;;;;;;;;;;13.40;99.90;;;;;;4991018;28;20443;-78
2022/10/06 10:15:53;;;;;;;;;;;13.40;99.90;;;;;;4986732;28;20021;-78
2022/10/06 10:18:25;;;;;;;;;;;13.50;99.90;;;;;;4980304;28;19937;-78
2022/10/06 10:20:54;;;;;;;;;;;13.50;99.90;;;;;;5001245;28;19926;-78
2022/10/06 10:23:23;;;;;;;;;;;13.50;99.90;;;;;;4984000;28;20045;-78
2022/10/06 10:25:57;;;;;;;;;;;13.50;99.90;;;;;;4989177;28;19981;-78
2022/10/06 10:28:31;;;;;;;;;;;13.50;99.90;;;;;;4979551;28;19937;-78
2022/10/06 10:31:02;;;;;;;;;;;13.60;99.90;;;;;;4983786;28;19957;-78
2022/10/06 10:33:31;;;;;;;;;;;13.60;99.90;;;;;;4981784;28;19949;-78
2022/10/06 10:35:59;;;;;;;;;;;13.60;99.90;;;;;;4983377;28;19926;-78
2022/10/06 10:38:27;;;;;;;;;;;13.60;99.90;;;;;;4982314;28;20418;-78
2022/10/06 10:40:59;;;;;;;;;;;13.70;99.90;;;;;;4997497;28;19972;-78
2022/10/06 10:43:28;;;;;;;;;;;13.70;99.90;;;;;;4980855;28;19992;-78
2022/10/06 10:45:58;;;;;;;;;;;13.70;99.90;;;;;;4995703;28;19932;-78
2022/10/06 10:48:29;;;;;;;;;;;13.80;99.90;;;;;;4980686;28;20036;-78
2022/10/06 10:50:58;;;;;;;;;;;13.80;99.90;;;;;;4986988;28;20044;-78
2022/10/06 10:53:28;;;;;;;;;;;13.80;99.90;;;;;;4986016;28;20009;-78
2022/10/06 10:55:57;;;;;;;;;;;13.90;99.90;;;;;;4974215;28;19926;-77
2022/10/06 10:58:29;;;;;;;;;;;13.90;99.90;;;;;;4976586;28;19960;-77
2022/10/06 11:00:58;;;;;;;;;;;13.90;99.90;;;;;;4983617;28;20265;-77
2022/10/06 11:03:24;;;;;;;;;;;13.90;99.90;;;;;;4983003;28;19936;-77
2022/10/06 11:06:06;;;;;;;;;;;14.00;99.90;;;;;;4978725;28;20396;-78
2022/10/06 11:08:36;;;;;;;;;;;14.00;99.90;;;;;;4981444;28;19953;-78
2022/10/06 11:11:13;;;;;;;;;;;14.00;99.90;;;;;;4982538;28;19997;-78
2022/10/06 11:13:42;;;;;;;;;;;14.10;99.90;;;;;;4977705;28;19966;-78
2022/10/06 11:16:15;;;;;;;;;;;14.10;99.90;;;;;;4984406;28;19965;-78
2022/10/06 11:18:48;;;;;;;;;;;14.10;99.90;;;;;;4987354;28;19940;-78
2022/10/06 11:21:16;;;;;;;;;;;14.10;99.90;;;;;;4986506;28;20017;-77
2022/10/06 11:23:47;;;;;;;;;;;14.10;99.90;;;;;;4981279;28;19934;-77
2022/10/06 11:26:23;;;;;;;;;;;14.20;99.90;;;;;;4982366;28;19926;-78
2022/10/06 11:28:56;;;;;;;;;;;14.30;99.90;;;;;;4979418;28;19933;-77
2022/10/06 11:31:28;;;;;;;;;;;14.30;99.90;;;;;;4975704;28;20371;-78
2022/10/06 11:33:56;;;;;;;;;;;14.30;99.90;;;;;;4978368;28;19926;-77
2022/10/06 11:36:30;;;;;;;;;;;14.30;99.90;;;;;;4999123;28;19926;-77
2022/10/06 11:39:01;;;;;;;;;;;14.40;99.90;;;;;;4984098;28;19930;-78
2022/10/06 11:41:31;;;;;;;;;;;14.40;99.90;;;;;;4976652;28;19926;-77
2022/10/06 11:44:03;;;;;;;;;;;14.40;99.90;;;;;;4982405;28;20384;-78
2022/10/06 11:46:33;;;;;;;;;;;14.40;99.90;;;;;;4982346;28;19926;-78
2022/10/06 11:49:18;;;;;;;;;;;14.50;99.90;;;;;;4979836;28;20122;-78
2022/10/06 11:51:45;;;;;;;;;;;14.40;99.90;;;;;;4982618;28;19926;-78
2022/10/06 11:54:26;;;;;;;;;;;14.50;99.90;;;;;;4986774;28;19932;-78
2022/10/06 11:56:55;;;;;;;;;;;14.50;99.90;;;;;;4983184;28;19926;-78
2022/10/06 11:59:26;;;;;;;;;;;14.50;99.90;;;;;;4984802;28;20163;-78
2022/10/06 12:01:56;;;;;;;;;;;14.60;99.90;;;;;;4984103;28;19949;-77
2022/10/06 12:04:25;;;;;;;;;;;14.60;99.90;;;;;;4986619;28;19948;-77
2022/10/06 12:07:01;;;;;;;;;;;14.60;99.90;;;;;;4977796;28;19972;-77
2022/10/06 12:09:30;;;;;;;;;;;14.60;99.90;;;;;;4983542;28;19953;-77
2022/10/06 12:11:59;;;;;;;;;;;14.60;99.90;;;;;;5002895;28;19936;-78
2022/10/06 12:14:31;;;;;;;;;;;14.60;99.90;;;;;;4980127;28;20327;-78
2022/10/06 12:17:00;;;;;;;;;;;14.70;99.90;;;;;;4985556;28;19925;-78
2022/10/06 12:19:30;;;;;;;;;;;14.70;99.90;;;;;;4984413;28;19926;-78
2022/10/06 12:22:00;;;;;;;;;;;14.70;99.90;;;;;;4987387;28;19930;-77
2022/10/06 12:24:31;;;;;;;;;;;14.70;99.90;;;;;;4989048;28;19957;-78
2022/10/06 12:27:10;;;;;;;;;;;14.70;99.90;;;;;;4981073;28;20370;-78
2022/10/06 12:29:42;;;;;;;;;;;14.80;99.90;;;;;;4977513;28;19926;-78
2022/10/06 12:32:18;;;;;;;;;;;14.80;99.90;;;;;;5055089;22;19940;-78
2022/10/06 12:35:06;;;;;;;;;;;14.90;99.90;;;;;;4999341;28;19933;-78
2022/10/06 12:37:36;;;;;;;;;;;14.90;99.90;;;;;;4972884;28;19926;-78
2022/10/06 12:40:21;;;;;;;;;;;15.00;99.90;;;;;;4998142;28;21263;-78
2022/10/06 12:42:49;;;;;;;;;;;14.90;99.90;;;;;;4986328;28;19934;-78
2022/10/06 12:45:16;;;;;;;;;;;15.00;99.90;;;;;;4982445;28;19926;-78
2022/10/06 12:47:44;;;;;;;;;;;15.00;99.90;;;;;;4986509;28;19926;-79
2022/10/06 12:50:14;;;;;;;;;;;15.00;99.90;;;;;;4986873;28;20293;-78
2022/10/06 12:52:44;;;;;;;;;;;15.00;99.90;;;;;;4979829;28;20028;-77
2022/10/06 12:55:21;;;;;;;;;;;15.00;99.90;;;;;;4975297;28;19930;-78
2022/10/06 12:57:49;;;;;;;;;;;15.00;99.90;;;;;;5004942;28;19949;-77
2022/10/06 13:00:24;;;;;;;;;;;15.10;99.90;;;;;;4982287;28;20364;-78
2022/10/06 13:02:54;;;;;;;;;;;15.10;99.90;;;;;;4980650;28;19932;-78
2022/10/06 13:05:21;;;;;;;;;;;15.10;99.90;;;;;;4978241;28;20291;-78
2022/10/06 13:07:58;;;;;;;;;;;15.20;99.90;;;;;;4985063;28;19997;-79
2022/10/06 13:10:26;;;;;;;;;;;15.20;99.90;;;;;;4987280;28;19991;-79
2022/10/06 13:12:54;;;;;;;;;;;15.30;99.90;;;;;;4980128;28;19926;-79
2022/10/06 13:15:22;;;;;;;;;;;15.30;99.90;;;;;;4989613;28;20000;-78
2022/10/06 13:17:52;;;;;;;;;;;15.40;99.90;;;;;;4989542;28;19932;-78
2022/10/06 13:20:20;;;;;;;;;;;15.40;99.90;;;;;;4982445;28;19926;-79
2022/10/06 13:22:54;;;;;;;;;;;15.40;99.90;;;;;;4985963;28;19932;-78
2022/10/06 13:25:21;;;;;;;;;;;15.40;99.90;;;;;;4984910;28;19972;-79
2022/10/06 13:27:49;;;;;;;;;;;15.40;99.90;;;;;;4981341;28;19930;-78
2022/10/06 13:30:18;;;;;;;;;;;15.50;99.90;;;;;;4975355;28;19934;-78
2022/10/06 13:32:45;;;;;;;;;;;15.50;99.90;;;;;;4990677;28;19926;-78
2022/10/06 13:35:14;;;;;;;;;;;15.50;99.90;;;;;;4984109;28;19988;-78
2022/10/06 13:37:41;;;;;;;;;;;15.50;99.90;;;;;;4984092;28;19934;-78
2022/10/06 13:40:15;;;;;;;;;;;15.50;99.90;;;;;;4987917;28;19975;-77
2022/10/06 13:42:45;;;;;;;;;;;15.50;99.90;;;;;;4988147;28;19925;-78
2022/10/06 13:45:13;;;;;;;;;;;15.50;99.90;;;;;;4992859;28;20308;-78
2022/10/06 13:47:40;;;;;;;;;;;15.60;99.90;;;;;;4983677;28;19941;-78
2022/10/06 13:50:08;;;;;;;;;;;15.60;99.90;;;;;;4987290;28;19936;-78
2022/10/06 13:52:38;;;;;;;;;;;15.60;99.90;;;;;;4979831;28;20348;-78
2022/10/06 13:55:05;;;;;;;;;;;15.60;99.90;;;;;;4981362;28;20235;-77
2022/10/06 13:57:33;;;;;;;;;;;15.60;99.90;;;;;;4979233;28;19948;-78
2022/10/06 14:00:05;;;;;;;;;;;15.70;99.90;;;;;;4972375;28;19926;-78
2022/10/06 14:02:33;;;;;;;;;;;15.60;99.90;;;;;;4983664;28;19925;-77
2022/10/06 14:05:18;;;;;;;;;;;15.70;99.90;;;;;;4983810;28;19932;-78
2022/10/06 14:07:46;;;;;;;;;;;15.70;99.90;;;;;;4975513;28;19934;-78
2022/10/06 14:10:15;;;;;;;;;;;15.70;99.90;;;;;;4994755;28;20002;-78
2022/10/06 14:12:43;;;;;;;;;;;15.70;99.90;;;;;;4980459;28;19926;-78
2022/10/06 14:15:16;;;;;;;;;;;15.80;99.90;;;;;;4994974;28;19930;-78
2022/10/06 14:17:42;;;;;;;;;;;15.70;99.90;;;;;;4985185;28;20012;-78
2022/10/06 14:20:24;;;;;;;;;;;15.80;99.90;;;;;;4979303;28;20126;-78
2022/10/06 14:22:52;;;;;;;;;;;15.80;99.90;;;;;;4977314;28;19926;-77
2022/10/06 14:25:21;;;;;;;;;;;15.80;99.90;;;;;;4976835;28;20332;-77
2022/10/06 14:27:47;;;;;;;;;;;15.80;99.90;;;;;;4983096;28;19930;-78
2022/10/06 14:30:15;;;;;;;;;;;15.90;99.90;;;;;;4973149;28;19973;-78
2022/10/06 14:32:42;;;;;;;;;;;15.90;99.90;;;;;;4978667;28;19934;-78
2022/10/06 14:35:10;;;;;;;;;;;15.90;99.90;;;;;;4981832;28;19941;-78
2022/10/06 14:37:37;;;;;;;;;;;15.90;99.90;;;;;;4978840;28;19932;-78
2022/10/06 14:40:06;;;;;;;;;;;15.90;99.90;;;;;;4980682;28;21165;-78
2022/10/06 14:42:33;;;;;;;;;;;15.90;99.90;;;;;;4982377;28;19976;-78
2022/10/06 14:44:59;;;;;;;;;;;15.90;99.90;;;;;;4975740;28;19925;-79